Cohasset, Minnesota
Current Conditions -  °F | °C
As of 1:55 PM on Thursday 30 Oct 2014 (Local Time) from KGPZ Reporting Station
Overcast Overcast  
Wind Chill: 28°   Ceiling: 2300
Heat Index: 37°   Visibility: 10mi
Dew Point: 34°   Wind: 17mph
Humidity: 87%   Direction: 310°NW
Pressure: 30.13"   Gusts: 22mph
Location:  47.26°N, 93.62°W
Report Text: KGPZ 301855Z AUTO 31015G19KT 10SM SCT014 BKN023 OVC032 03/01 A3013 RMK AO1
Loading
Personal Weather Stations






























Interactive Weather Map
Tropical Storm Tracking
New forecast layout! Learn more

10-Day Weather Forecast

Advertisements
Track Severe Weather on mobile